createdAt,value
2022-10-09T00:01:27.348Z,0.50
2022-10-09T00:03:55.624Z,0.20
2022-10-09T00:06:25.087Z,0.32
2022-10-09T00:08:51.668Z,0.30
2022-10-09T00:11:21.395Z,0.30
2022-10-09T00:13:48.912Z,0.30
2022-10-09T00:16:16.998Z,0.28
2022-10-09T00:18:44.250Z,0.70
2022-10-09T00:21:20.196Z,0.20
2022-10-09T00:23:47.258Z,0.30
2022-10-09T00:26:14.021Z,0.22
2022-10-09T00:28:40.576Z,0.40
2022-10-09T00:31:08.850Z,0.20
2022-10-09T00:33:36.431Z,0.43
2022-10-09T00:36:07.817Z,0.10
2022-10-09T00:38:34.454Z,0.30
2022-10-09T00:41:01.195Z,0.10
2022-10-09T00:43:44.224Z,0.25
2022-10-09T00:46:33.406Z,0.25
2022-10-09T00:49:11.118Z,0.20
2022-10-09T00:51:38.126Z,0.20
2022-10-09T00:54:10.000Z,0.52
2022-10-09T00:56:36.510Z,0.20
2022-10-09T00:59:03.844Z,0.30
2022-10-09T01:01:30.305Z,0.20
2022-10-09T01:03:56.826Z,0.20
2022-10-09T01:06:42.006Z,0.10
2022-10-09T01:09:15.023Z,0.25
2022-10-09T01:11:52.186Z,0.20
2022-10-09T01:14:26.047Z,0.30
2022-10-09T01:17:17.928Z,0.25
2022-10-09T01:20:07.098Z,0.28
2022-10-09T01:22:42.374Z,0.17
2022-10-09T01:25:15.059Z,0.10
2022-10-09T01:27:42.193Z,0.30
2022-10-09T01:30:11.535Z,0.10
2022-10-09T01:32:43.080Z,0.25
2022-10-09T01:35:12.491Z,0.20
2022-10-09T01:37:42.265Z,0.40
2022-10-09T01:40:10.275Z,0.13
2022-10-09T01:42:36.946Z,0.10
2022-10-09T01:45:03.522Z,0.17
2022-10-09T01:47:29.935Z,0.10
2022-10-09T01:50:05.678Z,0.30
2022-10-09T01:52:41.128Z,0.40
2022-10-09T01:55:22.328Z,0.20
2022-10-09T01:58:04.373Z,0.10
2022-10-09T02:00:36.890Z,0.77
2022-10-09T02:03:07.091Z,0.20
2022-10-09T02:05:34.166Z,0.10
2022-10-09T02:08:01.150Z,0.13
2022-10-09T02:10:27.878Z,0.10
2022-10-09T02:12:57.523Z,0.17
2022-10-09T02:15:32.208Z,0.20
2022-10-09T02:18:08.204Z,0.20
2022-10-09T02:20:37.369Z,0.03
2022-10-09T02:23:07.314Z,0.20
2022-10-09T02:25:34.726Z,0.17
2022-10-09T02:28:01.901Z,0.38
2022-10-09T02:30:37.492Z,0.15
2022-10-09T02:33:06.738Z,0.20
2022-10-09T02:35:33.488Z,0.10
2022-10-09T02:37:59.857Z,0.20
2022-10-09T02:40:26.536Z,0.60
2022-10-09T02:42:52.905Z,0.13
2022-10-09T02:45:19.281Z,0.20
2022-10-09T02:47:45.650Z,0.10
2022-10-09T02:50:12.070Z,0.10
2022-10-09T02:52:38.462Z,0.20
2022-10-09T02:55:05.209Z,0.25
2022-10-09T02:57:31.607Z,0.10
2022-10-09T02:59:57.973Z,0.10
2022-10-09T03:02:24.862Z,0.10
2022-10-09T03:04:51.399Z,0.32
2022-10-09T03:07:17.792Z,0.20
2022-10-09T03:09:44.177Z,0.20
2022-10-09T03:12:10.547Z,0.20
2022-10-09T03:14:36.933Z,0.20
2022-10-09T03:17:03.318Z,0.22
2022-10-09T03:19:29.687Z,0.10
2022-10-09T03:21:56.058Z,0.20
2022-10-09T03:24:22.424Z,0.30
2022-10-09T03:26:48.859Z,0.20
2022-10-09T03:29:15.262Z,0.10
2022-10-09T03:31:56.892Z,0.20
2022-10-09T03:34:23.338Z,0.10
2022-10-09T03:36:50.276Z,0.13
2022-10-09T03:39:16.692Z,0.20
2022-10-09T03:41:43.077Z,0.10
2022-10-09T03:44:09.461Z,0.10
2022-10-09T03:46:35.912Z,0.10
2022-10-09T03:49:02.345Z,0.10
2022-10-09T03:51:28.854Z,0.10
2022-10-09T03:53:55.222Z,0.20
2022-10-09T03:56:21.658Z,0.10
2022-10-09T03:58:48.083Z,0.00
2022-10-09T04:01:14.517Z,0.20
2022-10-09T04:03:40.934Z,0.08
2022-10-09T04:06:07.397Z,0.50
2022-10-09T04:08:35.776Z,0.20
2022-10-09T04:11:03.653Z,0.05
2022-10-09T04:13:30.072Z,0.32
2022-10-09T04:15:56.849Z,0.30
2022-10-09T04:18:24.723Z,0.10
2022-10-09T04:20:53.415Z,0.10
2022-10-09T04:23:22.638Z,0.10
2022-10-09T04:25:53.099Z,0.20
2022-10-09T04:28:19.542Z,0.40
2022-10-09T04:30:45.966Z,0.30
2022-10-09T04:33:13.198Z,0.20
2022-10-09T04:35:44.228Z,0.30
2022-10-09T04:38:10.926Z,0.20
2022-10-09T04:40:37.530Z,0.38
2022-10-09T04:43:06.158Z,0.15
2022-10-09T04:45:32.642Z,0.30
2022-10-09T04:47:59.095Z,0.10
2022-10-09T04:50:25.603Z,0.13
2022-10-09T04:52:52.145Z,0.30
2022-10-09T04:55:18.643Z,0.28
2022-10-09T04:57:45.019Z,0.30
2022-10-09T05:00:12.181Z,0.30
2022-10-09T05:02:38.621Z,0.20
2022-10-09T05:05:05.470Z,0.25
2022-10-09T05:07:32.114Z,0.10
2022-10-09T05:09:58.478Z,0.22
2022-10-09T05:12:24.893Z,0.15
2022-10-09T05:14:51.328Z,0.20
2022-10-09T05:17:22.044Z,0.22
2022-10-09T05:19:49.464Z,0.10
2022-10-09T05:22:15.845Z,0.10
2022-10-09T05:24:42.247Z,0.20
2022-10-09T05:27:08.705Z,0.10
2022-10-09T05:29:35.127Z,0.22
2022-10-09T05:32:01.606Z,0.30
2022-10-09T05:34:28.292Z,0.20
2022-10-09T05:36:54.685Z,0.10
2022-10-09T05:39:21.075Z,0.20
2022-10-09T05:41:47.447Z,0.13
2022-10-09T05:44:13.834Z,0.10
2022-10-09T05:46:40.223Z,0.10
2022-10-09T05:49:06.761Z,0.10
2022-10-09T05:51:35.785Z,0.55
2022-10-09T05:54:02.354Z,0.13
2022-10-09T05:56:38.738Z,0.10
2022-10-09T05:59:06.286Z,0.00
2022-10-09T06:01:35.760Z,0.20
2022-10-09T06:04:03.016Z,0.35
2022-10-09T06:06:31.741Z,0.43
2022-10-09T06:08:59.179Z,0.13
2022-10-09T06:11:28.589Z,0.10
2022-10-09T06:13:56.100Z,0.40
2022-10-09T06:16:25.569Z,0.57
2022-10-09T06:18:53.141Z,0.25
2022-10-09T06:21:19.931Z,0.10
2022-10-09T06:23:53.039Z,0.17
2022-10-09T06:26:20.230Z,0.35
2022-10-09T06:28:47.290Z,0.08
2022-10-09T06:31:20.166Z,0.28
2022-10-09T06:33:48.606Z,0.10
2022-10-09T06:36:27.213Z,0.20
2022-10-09T06:38:54.057Z,0.10
2022-10-09T06:41:23.348Z,0.15
2022-10-09T06:44:01.294Z,0.22
2022-10-09T06:46:36.329Z,0.40
2022-10-09T06:49:04.152Z,0.10
2022-10-09T06:51:32.880Z,0.30
2022-10-09T06:54:01.694Z,0.30
2022-10-09T06:56:31.559Z,0.10
2022-10-09T06:59:02.873Z,0.10
2022-10-09T07:01:32.159Z,0.13
2022-10-09T07:04:04.381Z,0.10
2022-10-09T07:06:32.360Z,0.35
2022-10-09T07:09:01.857Z,0.40
2022-10-09T07:11:36.585Z,0.32
2022-10-09T07:14:06.566Z,0.10
2022-10-09T07:16:37.038Z,0.22
2022-10-09T07:19:07.472Z,0.38
2022-10-09T07:21:38.542Z,0.20
2022-10-09T07:24:06.200Z,0.60
2022-10-09T07:26:35.613Z,0.25
2022-10-09T07:29:03.380Z,0.55
2022-10-09T07:31:29.784Z,0.20
2022-10-09T07:33:57.910Z,0.40
2022-10-09T07:36:25.147Z,0.10
2022-10-09T07:38:53.684Z,0.35
2022-10-09T07:41:22.015Z,0.52
2022-10-09T07:43:48.704Z,1.85
2022-10-09T07:46:17.693Z,0.20
2022-10-09T07:48:44.535Z,0.38
2022-10-09T07:51:18.304Z,0.40
2022-10-09T07:53:45.185Z,0.20
2022-10-09T07:56:18.850Z,0.28
2022-10-09T07:58:53.778Z,0.55
2022-10-09T08:01:21.011Z,0.30
2022-10-09T08:03:48.848Z,0.35
2022-10-09T08:06:15.457Z,0.40
2022-10-09T08:08:41.944Z,0.40
2022-10-09T08:11:16.145Z,0.85
2022-10-09T08:16:10.167Z,0.30
2022-10-09T08:18:37.446Z,0.50
2022-10-09T08:21:07.111Z,0.25
2022-10-09T08:23:33.828Z,0.60
2022-10-09T08:26:00.626Z,0.30
2022-10-09T08:28:27.351Z,0.25
2022-10-09T08:30:54.007Z,0.22
2022-10-09T08:33:22.099Z,0.68
2022-10-09T08:35:49.970Z,0.40
2022-10-09T08:38:37.498Z,0.55
2022-10-09T08:41:08.951Z,0.25
2022-10-09T08:43:39.965Z,0.47
2022-10-09T08:46:32.290Z,1.05
2022-10-09T08:49:02.005Z,0.45
2022-10-09T08:51:32.226Z,0.40
2022-10-09T08:54:04.414Z,0.40
2022-10-09T08:56:33.307Z,0.38
2022-10-09T08:59:01.805Z,0.55
2022-10-09T09:01:49.527Z,0.52
2022-10-09T09:04:23.954Z,0.40
2022-10-09T09:06:59.644Z,0.30
2022-10-09T09:09:53.473Z,0.47
2022-10-09T09:12:55.183Z,0.30
2022-10-09T09:15:47.322Z,0.20
2022-10-09T09:18:24.309Z,0.68
2022-10-09T09:20:54.517Z,0.40
2022-10-09T09:23:28.596Z,0.68
2022-10-09T09:25:55.674Z,0.43
2022-10-09T09:28:41.621Z,0.47
2022-10-09T09:31:21.042Z,0.50
2022-10-09T09:34:13.803Z,0.70
2022-10-09T09:36:49.515Z,0.35
2022-10-09T09:42:16.243Z,0.55
2022-10-09T09:44:54.721Z,0.50
2022-10-09T09:47:33.473Z,0.55
2022-10-09T09:50:02.501Z,0.20
2022-10-09T09:52:35.244Z,0.80
2022-10-09T09:55:02.356Z,0.43
2022-10-09T09:57:40.038Z,0.63
2022-10-09T10:00:18.037Z,0.50
2022-10-09T10:02:44.492Z,0.82
2022-10-09T10:05:27.287Z,0.60
2022-10-09T10:07:54.591Z,0.77
2022-10-09T10:10:29.211Z,0.52
2022-10-09T10:12:58.589Z,0.38
2022-10-09T10:15:31.123Z,0.50
2022-10-09T10:18:06.783Z,1.05
2022-10-09T10:20:49.395Z,0.40
2022-10-09T10:23:35.522Z,0.40
2022-10-09T10:26:07.960Z,0.70
2022-10-09T10:28:45.370Z,0.68
2022-10-09T10:31:18.775Z,1.15
2022-10-09T10:33:51.992Z,0.60
2022-10-09T10:36:19.063Z,0.80
2022-10-09T10:38:57.177Z,0.90
2022-10-09T10:41:37.559Z,0.35
2022-10-09T10:44:17.758Z,0.85
2022-10-09T10:47:10.805Z,0.70
2022-10-09T10:49:37.475Z,0.70
2022-10-09T10:52:25.822Z,0.57
2022-10-09T10:55:11.165Z,0.50
2022-10-09T11:01:19.229Z,0.57
2022-10-09T11:04:14.115Z,1.23
2022-10-09T11:09:36.125Z,0.55
2022-10-09T11:12:46.836Z,0.60
2022-10-09T11:15:37.512Z,0.68
2022-10-09T11:18:24.046Z,0.80
2022-10-09T11:21:00.750Z,0.50
2022-10-09T11:23:50.298Z,0.70
2022-10-09T11:26:53.796Z,0.40
2022-10-09T11:29:26.866Z,0.68
2022-10-09T11:31:58.451Z,0.65
2022-10-09T11:34:32.218Z,0.35
2022-10-09T11:37:01.239Z,0.63
2022-10-09T11:39:32.431Z,0.50
2022-10-09T11:41:59.964Z,0.40
2022-10-09T11:45:03.367Z,0.60
2022-10-09T11:47:44.685Z,0.75
2022-10-09T11:50:47.673Z,0.80
2022-10-09T11:53:20.703Z,1.40
2022-10-09T11:55:48.253Z,1.25
2022-10-09T11:58:20.632Z,2.30
2022-10-09T12:00:50.543Z,2.00
2022-10-09T12:03:27.221Z,1.50
2022-10-09T12:06:03.651Z,2.42
2022-10-09T12:08:30.160Z,2.42
2022-10-09T12:11:16.379Z,2.65
2022-10-09T12:14:05.072Z,2.15
2022-10-09T12:16:44.308Z,2.25
2022-10-09T12:19:29.499Z,2.28
2022-10-09T12:22:08.010Z,3.03
2022-10-09T12:24:47.482Z,3.13
2022-10-09T12:27:26.150Z,2.75
2022-10-09T12:29:59.803Z,2.80
2022-10-09T12:32:35.405Z,3.10
2022-10-09T12:35:18.579Z,2.90
2022-10-09T12:37:45.015Z,3.33
2022-10-09T12:40:17.551Z,2.85
2022-10-09T12:42:45.007Z,2.38
2022-10-09T12:45:30.301Z,2.40
2022-10-09T12:47:59.993Z,2.45
2022-10-09T12:50:31.340Z,3.05
2022-10-09T12:53:00.613Z,3.13
2022-10-09T12:55:33.765Z,3.08
2022-10-09T12:58:05.016Z,2.78
2022-10-09T13:00:35.383Z,3.22
2022-10-09T13:03:01.932Z,2.90
2022-10-09T13:05:42.494Z,2.70
2022-10-09T13:08:23.963Z,2.72
2022-10-09T13:10:50.707Z,2.40
2022-10-09T13:13:23.120Z,2.45
2022-10-09T13:16:02.012Z,2.83
2022-10-09T13:18:29.303Z,3.15
2022-10-09T13:21:22.910Z,3.00
2022-10-09T13:23:49.295Z,3.20
2022-10-09T13:26:36.168Z,3.13
2022-10-09T13:29:05.736Z,2.67
2022-10-09T13:31:33.726Z,3.22
2022-10-09T13:34:12.010Z,3.03
2022-10-09T13:36:40.934Z,3.08
2022-10-09T13:39:13.518Z,2.95
2022-10-09T13:41:40.460Z,2.92
2022-10-09T13:44:06.873Z,2.33
2022-10-09T13:46:33.333Z,3.38
2022-10-09T13:48:59.764Z,2.95
2022-10-09T13:51:26.196Z,2.85
2022-10-09T13:53:53.744Z,2.85
2022-10-09T13:56:20.202Z,2.90
2022-10-09T13:58:46.627Z,2.78
2022-10-09T14:01:15.245Z,2.80
2022-10-09T14:03:41.784Z,3.38
2022-10-09T14:06:08.210Z,3.15
2022-10-09T14:08:34.596Z,3.17
2022-10-09T14:11:01.105Z,3.88
2022-10-09T14:13:28.549Z,3.10
2022-10-09T14:15:55.087Z,2.50
2022-10-09T14:18:21.678Z,2.35
2022-10-09T14:20:49.162Z,2.40
2022-10-09T14:23:15.641Z,2.78
2022-10-09T14:25:42.084Z,2.53
2022-10-09T14:28:08.551Z,2.75
2022-10-09T14:30:35.025Z,3.00
2022-10-09T14:33:01.476Z,2.78
2022-10-09T14:35:27.905Z,2.50
2022-10-09T14:37:54.314Z,2.45
2022-10-09T14:40:20.698Z,2.55
2022-10-09T14:42:47.316Z,2.65
2022-10-09T14:45:14.041Z,2.97
2022-10-09T14:47:40.462Z,2.63
2022-10-09T14:50:07.281Z,2.42
2022-10-09T14:52:33.773Z,2.67
2022-10-09T14:55:00.222Z,2.85
2022-10-09T14:57:28.389Z,2.42
2022-10-09T14:59:56.691Z,3.03
2022-10-09T15:02:23.599Z,3.00
2022-10-09T15:04:49.976Z,3.83
2022-10-09T15:07:16.404Z,3.30
2022-10-09T15:09:42.772Z,5.18
2022-10-09T15:12:09.163Z,5.95
2022-10-09T15:14:35.565Z,11.23
2022-10-09T15:17:01.998Z,9.35
2022-10-09T15:19:28.370Z,10.40
2022-10-09T15:21:54.744Z,10.30
2022-10-09T15:24:21.155Z,10.70
2022-10-09T15:26:47.555Z,10.70
2022-10-09T15:29:13.995Z,10.98
2022-10-09T15:31:41.498Z,12.23
2022-10-09T15:34:10.107Z,12.70
2022-10-09T15:36:39.596Z,11.93
2022-10-09T15:39:08.728Z,12.82
2022-10-09T15:41:37.423Z,13.02
2022-10-09T15:44:12.642Z,13.57
2022-10-09T15:46:39.037Z,11.75
2022-10-09T15:49:06.850Z,13.07
2022-10-09T15:51:33.407Z,12.82
2022-10-09T15:54:01.169Z,11.45
2022-10-09T15:56:28.207Z,11.27
2022-10-09T15:58:55.660Z,12.30
2022-10-09T16:01:22.843Z,10.45
2022-10-09T16:03:49.786Z,11.90
2022-10-09T16:06:19.454Z,12.68
2022-10-09T16:08:47.032Z,11.60
2022-10-09T16:11:17.878Z,11.57
2022-10-09T16:13:46.733Z,11.10
2022-10-09T16:16:16.731Z,11.55
2022-10-09T16:18:43.281Z,10.45
2022-10-09T16:21:14.079Z,10.20
2022-10-09T16:23:41.636Z,10.07
2022-10-09T16:26:08.647Z,10.65
2022-10-09T16:28:35.306Z,9.80
2022-10-09T16:31:02.253Z,8.70
2022-10-09T16:33:29.053Z,10.13
2022-10-09T16:36:06.910Z,9.23
2022-10-09T16:38:33.274Z,10.02
2022-10-09T16:41:02.316Z,9.00
2022-10-09T16:43:29.080Z,8.10
2022-10-09T16:45:55.456Z,7.05
2022-10-09T16:48:21.850Z,7.22
2022-10-09T16:50:48.223Z,7.15
2022-10-09T16:53:14.670Z,8.25
2022-10-09T16:55:41.047Z,8.48
2022-10-09T16:58:07.439Z,7.38
2022-10-09T17:00:33.895Z,6.95
2022-10-09T17:03:00.310Z,6.57
2022-10-09T17:05:26.737Z,6.70
2022-10-09T17:07:54.161Z,6.60
2022-10-09T17:10:20.647Z,5.80
2022-10-09T17:12:47.063Z,6.00
2022-10-09T17:15:13.589Z,5.00
2022-10-09T17:17:40.107Z,5.60
2022-10-09T17:20:07.197Z,6.55
2022-10-09T17:22:33.587Z,6.15
2022-10-09T17:24:59.963Z,6.95
2022-10-09T17:27:26.382Z,6.25
2022-10-09T17:29:52.762Z,5.65
2022-10-09T17:32:19.151Z,5.20
2022-10-09T17:34:46.043Z,5.22
2022-10-09T17:37:13.104Z,5.80
2022-10-09T17:39:40.070Z,5.63
2022-10-09T17:42:06.473Z,5.63
2022-10-09T17:44:33.976Z,5.05
2022-10-09T17:47:00.854Z,5.75
2022-10-09T17:49:27.886Z,5.95
2022-10-09T17:51:54.543Z,4.78
2022-10-09T17:54:21.263Z,5.15
2022-10-09T17:56:47.736Z,4.32
2022-10-09T17:59:15.574Z,4.47
2022-10-09T18:01:42.425Z,5.07
2022-10-09T18:04:13.739Z,4.93
2022-10-09T18:06:40.109Z,4.13
2022-10-09T18:09:06.477Z,4.20
2022-10-09T18:11:33.079Z,4.00
2022-10-09T18:13:59.690Z,4.30
2022-10-09T18:16:35.940Z,4.28
2022-10-09T18:19:07.821Z,4.32
2022-10-09T18:21:35.383Z,4.93
2022-10-09T18:24:01.856Z,4.38
2022-10-09T18:26:28.294Z,3.88
2022-10-09T18:28:54.879Z,4.65
2022-10-09T18:31:23.566Z,3.50
2022-10-09T18:33:50.507Z,3.08
2022-10-09T18:36:19.831Z,3.97
2022-10-09T18:38:48.439Z,4.15
2022-10-09T18:41:15.283Z,3.42
2022-10-09T18:43:41.642Z,3.13
2022-10-09T18:46:08.703Z,2.65
2022-10-09T18:48:38.390Z,3.20
2022-10-09T18:51:08.118Z,3.28
2022-10-09T18:53:37.937Z,3.45
2022-10-09T18:56:05.992Z,3.10
2022-10-09T18:58:33.559Z,2.85
2022-10-09T19:01:03.312Z,3.28
2022-10-09T19:03:31.851Z,2.85
2022-10-09T19:05:58.488Z,2.88
2022-10-09T19:08:24.879Z,2.45
2022-10-09T19:10:52.703Z,2.97
2022-10-09T19:13:20.291Z,3.20
2022-10-09T19:15:51.396Z,2.38
2022-10-09T19:18:17.857Z,2.90
2022-10-09T19:20:44.313Z,3.13
2022-10-09T19:23:11.140Z,2.60
2022-10-09T19:25:37.564Z,2.70
2022-10-09T19:28:04.200Z,2.88
2022-10-09T19:30:30.923Z,2.78
2022-10-09T19:32:57.686Z,2.20
2022-10-09T19:35:24.101Z,2.95
2022-10-09T19:37:50.711Z,3.22
2022-10-09T19:40:17.425Z,2.88
2022-10-09T19:42:43.890Z,2.50
2022-10-09T19:45:10.523Z,2.30
2022-10-09T19:47:36.978Z,2.40
2022-10-09T19:50:03.650Z,2.40
2022-10-09T19:52:30.109Z,1.92
2022-10-09T19:54:56.545Z,2.47
2022-10-09T19:57:22.897Z,1.95
2022-10-09T19:59:49.305Z,2.03
2022-10-09T20:02:15.696Z,2.33
2022-10-09T20:04:42.070Z,2.50
2022-10-09T20:07:12.548Z,2.80
2022-10-09T20:09:39.286Z,2.65
2022-10-09T20:12:07.915Z,2.30
2022-10-09T20:14:34.300Z,2.22
2022-10-09T20:17:00.671Z,3.00
2022-10-09T20:19:30.977Z,3.05
2022-10-09T20:21:57.995Z,3.28
2022-10-09T20:24:24.376Z,2.75
2022-10-09T20:26:50.774Z,3.47
2022-10-09T20:29:17.180Z,2.95
2022-10-09T20:31:43.583Z,2.67
2022-10-09T20:34:10.001Z,2.85
2022-10-09T20:36:38.967Z,2.75
2022-10-09T20:39:09.034Z,2.50
2022-10-09T20:41:35.591Z,2.08
2022-10-09T20:44:02.789Z,2.45
2022-10-09T20:46:31.236Z,2.22
2022-10-09T20:48:57.918Z,2.50
2022-10-09T20:51:25.044Z,3.20
2022-10-09T20:53:55.668Z,1.90
2022-10-09T20:56:23.801Z,2.40
2022-10-09T20:58:50.375Z,2.55
2022-10-09T21:01:17.195Z,2.00
2022-10-09T21:03:44.010Z,2.17
2022-10-09T21:06:13.463Z,2.00
2022-10-09T21:08:40.159Z,2.17
2022-10-09T21:11:12.229Z,2.13
2022-10-09T21:13:39.634Z,1.90
2022-10-09T21:16:08.600Z,2.13
2022-10-09T21:18:36.046Z,2.17
2022-10-09T21:21:10.550Z,1.90
2022-10-09T21:23:37.738Z,1.75
2022-10-09T21:26:04.900Z,1.60
2022-10-09T21:28:31.594Z,1.90
2022-10-09T21:30:58.072Z,1.80
2022-10-09T21:33:24.480Z,1.83
2022-10-09T21:35:55.180Z,1.50
2022-10-09T21:38:23.407Z,1.35
2022-10-09T21:40:50.253Z,1.50
2022-10-09T21:43:17.165Z,1.42
2022-10-09T21:45:44.585Z,1.55
2022-10-09T21:48:16.134Z,1.35
2022-10-09T21:50:42.886Z,1.42
2022-10-09T21:53:09.295Z,1.52
2022-10-09T21:55:37.684Z,1.30
2022-10-09T21:58:04.919Z,0.98
2022-10-09T22:00:31.351Z,1.60
2022-10-09T22:02:57.763Z,1.88
2022-10-09T22:05:24.214Z,1.38
2022-10-09T22:07:50.605Z,1.15
2022-10-09T22:10:17.091Z,1.13
2022-10-09T22:12:43.479Z,1.52
2022-10-09T22:15:10.313Z,1.40
2022-10-09T22:17:36.835Z,1.27
2022-10-09T22:20:03.758Z,1.33
2022-10-09T22:22:30.436Z,1.33
2022-10-09T22:24:56.820Z,1.17
2022-10-09T22:27:23.243Z,1.30
2022-10-09T22:29:49.618Z,0.85
2022-10-09T22:32:16.044Z,0.85
2022-10-09T22:34:42.478Z,1.50
2022-10-09T22:37:08.881Z,1.13
2022-10-09T22:39:35.276Z,1.30
2022-10-09T22:42:01.667Z,1.08
2022-10-09T22:44:28.068Z,0.98
2022-10-09T22:46:54.477Z,1.08
2022-10-09T22:49:20.870Z,1.30
2022-10-09T22:51:47.326Z,1.23
2022-10-09T22:54:13.823Z,0.88
2022-10-09T22:56:43.543Z,0.82
2022-10-09T22:59:12.026Z,0.80
2022-10-09T23:01:49.494Z,0.55
2022-10-09T23:04:17.584Z,1.05
2022-10-09T23:06:44.869Z,0.85
2022-10-09T23:09:14.058Z,0.90
2022-10-09T23:11:41.071Z,0.80
2022-10-09T23:14:07.844Z,0.60
2022-10-09T23:16:34.713Z,1.02
2022-10-09T23:19:06.420Z,0.50
2022-10-09T23:21:34.999Z,0.85
2022-10-09T23:24:01.605Z,0.93
2022-10-09T23:26:30.925Z,0.77
2022-10-09T23:29:00.095Z,0.60
2022-10-09T23:31:28.434Z,0.90
2022-10-09T23:33:55.683Z,1.02
2022-10-09T23:36:26.242Z,1.05
2022-10-09T23:38:53.395Z,0.50
2022-10-09T23:41:22.407Z,0.73
2022-10-09T23:43:49.444Z,0.90
2022-10-09T23:46:22.190Z,0.60
2022-10-09T23:48:49.735Z,1.00
2022-10-09T23:51:17.045Z,0.65
2022-10-09T23:53:43.822Z,0.60
2022-10-09T23:56:20.795Z,0.70
2022-10-09T23:58:48.138Z,0.60
